Time;durP1;ratioP1;P1;durP2;ratioP2;P2;SDS_P1;SDS_P2;PMS_P1;PMS_P2;Temp;Humidity;BMP_temperature;BMP_pressure;BME280_temperature;BME280_humidity;BME280_pressure;Samples;Min_cycle;Max_cycle;Signal;HPM_P1;HPM_P2
2021/05/22 00:02:25;;;;;;;4.47;2.80;;;;;;;8.96;79.02;100512.95;1800033;78;21054;-71
2021/05/22 00:04:53;;;;;;;5.15;2.95;;;;;;;8.91;78.99;100510.20;1795064;78;21089;-70
2021/05/22 00:07:20;;;;;;;4.90;2.70;;;;;;;8.86;79.08;100510.16;1797597;78;21111;-70
2021/05/22 00:09:47;;;;;;;6.80;3.17;;;;;;;8.84;79.15;100510.39;1813258;78;21049;-70
2021/05/22 00:12:14;;;;;;;6.53;3.20;;;;;;;8.79;79.32;100507.67;1777443;79;21092;-71
2021/05/22 00:14:40;;;;;;;4.35;2.90;;;;;;;8.75;79.50;100503.87;1809457;78;21138;-70
2021/05/22 00:17:08;;;;;;;5.12;3.47;;;;;;;8.72;79.62;100504.39;1787722;78;21630;-70
2021/05/22 00:19:36;;;;;;;4.10;2.90;;;;;;;8.73;79.73;100503.86;1808831;77;21060;-71
2021/05/22 00:22:05;;;;;;;4.85;2.83;;;;;;;8.71;79.82;100505.95;1811414;78;21044;-70
2021/05/22 00:24:31;;;;;;;4.83;3.00;;;;;;;8.68;79.91;100508.04;1791903;78;20997;-69
2021/05/22 00:26:58;;;;;;;4.35;2.70;;;;;;;8.59;80.13;100507.40;1771181;79;21059;-71
2021/05/22 00:29:24;;;;;;;3.80;2.55;;;;;;;8.52;80.38;100513.39;1813342;78;21083;-71
2021/05/22 00:31:51;;;;;;;3.60;2.60;;;;;;;8.49;80.54;100517.88;1817708;78;21074;-70
2021/05/22 00:34:18;;;;;;;4.42;2.72;;;;;;;8.49;80.67;100516.54;1810004;78;21132;-71
2021/05/22 00:36:45;;;;;;;5.10;2.65;;;;;;;8.47;80.76;100516.00;1795622;78;21038;-71
2021/05/22 00:39:12;;;;;;;3.90;2.90;;;;;;;8.46;80.82;100519.19;1785954;79;21056;-71
2021/05/22 00:41:39;;;;;;;3.85;2.67;;;;;;;8.48;80.92;100519.73;1796061;78;21093;-71
2021/05/22 00:44:07;;;;;;;3.90;2.72;;;;;;;8.50;80.95;100516.31;1803633;78;21021;-70
2021/05/22 00:46:34;;;;;;;5.03;2.55;;;;;;;8.50;81.03;100512.32;1794069;78;21156;-71
2021/05/22 00:49:02;;;;;;;5.25;2.80;;;;;;;8.51;81.07;100520.58;1798889;78;21013;-70
2021/05/22 00:51:29;;;;;;;4.85;2.60;;;;;;;8.51;81.08;100515.78;1798776;78;21037;-70
2021/05/22 00:53:55;;;;;;;4.17;2.65;;;;;;;8.45;81.09;100518.89;1804815;78;21192;-71
2021/05/22 00:56:22;;;;;;;7.03;3.17;;;;;;;8.29;81.20;100515.19;1796066;78;21174;-72
2021/05/22 00:58:50;;;;;;;4.67;3.42;;;;;;;8.16;81.46;100515.47;1797027;78;21870;-71
2021/05/22 01:01:17;;;;;;;4.37;2.90;;;;;;;8.11;81.72;100514.08;1785616;78;21573;-70
2021/05/22 01:03:45;;;;;;;4.92;3.27;;;;;;;8.13;81.85;100518.64;1799056;78;21104;-70
2021/05/22 01:06:27;;;;;;;5.10;3.33;;;;;;;8.14;81.96;100520.25;1797017;78;21073;-71
2021/05/22 01:09:10;;;;;;;4.53;3.05;;;;;;;8.15;82.00;100513.34;1797991;78;21351;-71
2021/05/22 01:11:45;;;;;;;4.42;3.00;;;;;;;8.13;82.06;100518.12;1796355;78;21033;-70
2021/05/22 01:14:48;;;;;;;4.00;3.17;;;;;;;8.07;82.16;100514.29;1784481;78;21025;-71
2021/05/22 01:17:18;;;;;;;6.97;3.83;;;;;;;7.96;82.31;100513.29;1796415;78;21110;-70
2021/05/22 01:20:28;;;;;;;6.53;3.62;;;;;;;7.96;82.51;100511.46;1799947;78;21132;-71
2021/05/22 01:22:59;;;;;;;5.33;3.50;;;;;;;7.97;82.63;100509.08;1798792;78;21041;-70
2021/05/22 01:25:33;;;;;;;4.97;3.65;;;;;;;7.96;82.74;100509.30;1772784;79;21116;-70
2021/05/22 01:28:01;;;;;;;4.55;3.65;;;;;;;7.94;82.90;100513.55;1796605;78;20991;-69
2021/05/22 01:30:28;;;;;;;4.97;3.60;;;;;;;7.99;83.03;100519.46;1798267;79;21013;-71
2021/05/22 01:32:55;;;;;;;6.00;3.70;;;;;;;8.01;83.07;100520.56;1799174;78;21658;-71
2021/05/22 01:35:22;;;;;;;5.33;3.60;;;;;;;8.02;83.18;100526.16;1793665;78;21165;-70
2021/05/22 01:37:49;;;;;;;5.00;3.62;;;;;;;8.03;83.23;100521.11;1797242;78;21097;-70
2021/05/22 01:40:17;;;;;;;6.58;4.00;;;;;;;8.04;83.30;100526.20;1776910;79;21594;-71
2021/05/22 01:42:45;;;;;;;5.97;3.65;;;;;;;8.08;83.39;100531.84;1786123;79;21509;-70
2021/05/22 01:45:19;;;;;;;5.95;3.27;;;;;;;8.11;83.43;100536.16;1779627;79;20981;-70
2021/05/22 01:47:46;;;;;;;5.67;3.58;;;;;;;8.15;83.44;100539.14;1787738;78;21130;-70
2021/05/22 01:50:14;;;;;;;4.85;3.17;;;;;;;8.15;83.36;100535.16;1790255;78;21162;-71
2021/05/22 01:52:44;;;;;;;6.10;3.55;;;;;;;8.16;83.34;100531.44;1794422;78;21582;-70
2021/05/22 01:55:11;;;;;;;5.08;3.55;;;;;;;8.16;83.29;100534.93;1800722;78;21112;-71
2021/05/22 01:57:39;;;;;;;5.00;3.65;;;;;;;8.16;83.22;100542.08;1797737;78;21667;-70
2021/05/22 02:00:08;;;;;;;6.22;3.80;;;;;;;8.14;83.16;100539.67;1810430;78;21573;-71
2021/05/22 02:02:56;;;;;;;7.17;4.37;;;;;;;8.12;83.12;100539.09;1770873;79;21071;-70
2021/05/22 02:05:22;;;;;;;6.75;4.17;;;;;;;8.08;83.11;100541.97;1780795;78;20988;-70
2021/05/22 02:07:49;;;;;;;5.75;4.20;;;;;;;8.05;83.13;100542.44;1788108;78;21000;-70
2021/05/22 02:10:16;;;;;;;6.62;4.03;;;;;;;8.06;83.17;100536.59;1782270;79;21129;-71
2021/05/22 02:12:44;;;;;;;6.47;4.03;;;;;;;8.07;83.20;100539.03;1784878;78;21801;-70
2021/05/22 02:15:14;;;;;;;6.78;4.10;;;;;;;8.04;83.20;100543.50;1796058;78;21136;-71
2021/05/22 02:17:41;;;;;;;7.58;3.83;;;;;;;7.98;83.27;100541.80;1798028;78;21012;-70
2021/05/22 02:20:09;;;;;;;8.03;4.20;;;;;;;7.92;83.39;100540.09;1804429;78;21683;-70
2021/05/22 02:22:39;;;;;;;4.37;3.40;;;;;;;7.89;83.56;100548.02;1799088;78;21663;-70
2021/05/22 02:25:07;;;;;;;5.60;4.00;;;;;;;7.87;83.73;100544.00;1814581;77;21028;-71
2021/05/22 02:27:35;;;;;;;7.58;4.45;;;;;;;7.84;83.91;100545.81;1805984;78;21942;-69
2021/05/22 02:30:08;;;;;;;6.62;4.10;;;;;;;7.86;84.16;100551.67;1769368;79;21049;-70
2021/05/22 02:32:37;;;;;;;5.95;4.17;;;;;;;7.91;84.30;100551.78;1807101;78;21597;-70
2021/05/22 02:35:04;;;;;;;6.40;4.12;;;;;;;7.94;84.45;100548.64;1815102;78;21614;-70
2021/05/22 02:37:31;;;;;;;6.30;4.40;;;;;;;7.98;84.57;100552.43;1808605;78;21032;-70
2021/05/22 02:40:01;;;;;;;6.60;4.15;;;;;;;8.03;84.71;100549.04;1790401;78;21060;-70
2021/05/22 02:42:30;;;;;;;7.62;3.98;;;;;;;8.05;84.79;100559.73;1799074;78;21128;-71
2021/05/22 02:44:57;;;;;;;5.92;3.98;;;;;;;8.05;84.96;100558.93;1815204;77;21017;-71
2021/05/22 02:47:24;;;;;;;8.98;4.35;;;;;;;8.09;85.14;100560.86;1805624;78;20972;-69
2021/05/22 02:49:50;;;;;;;5.72;4.40;;;;;;;8.13;85.30;100575.84;1745345;80;21049;-71
2021/05/22 02:52:19;;;;;;;7.10;4.12;;;;;;;8.19;85.50;100574.36;1801004;78;21168;-71
2021/05/22 02:54:47;;;;;;;5.87;4.10;;;;;;;8.29;85.64;100572.89;1768041;78;21041;-72
2021/05/22 02:57:14;;;;;;;5.50;4.10;;;;;;;8.39;85.75;100577.08;1800212;78;21112;-71
2021/05/22 02:59:41;;;;;;;5.80;4.12;;;;;;;8.51;85.89;100583.66;1801612;78;21225;-70
2021/05/22 03:02:08;;;;;;;6.30;4.10;;;;;;;8.59;85.90;100581.42;1804922;78;21023;-71
2021/05/22 03:04:35;;;;;;;5.55;4.08;;;;;;;8.65;85.89;100583.11;1730273;79;21595;-70
2021/05/22 03:07:03;;;;;;;5.53;3.90;;;;;;;8.69;85.90;100588.22;1809065;77;21465;-70
2021/05/22 03:09:32;;;;;;;7.08;4.00;;;;;;;8.75;85.96;100595.74;1811661;78;20992;-70
2021/05/22 03:11:58;;;;;;;4.42;3.60;;;;;;;8.81;85.97;100593.44;1799454;78;21034;-70
2021/05/22 03:14:26;;;;;;;8.45;4.60;;;;;;;8.85;86.00;100599.91;1800096;78;21042;-70
2021/05/22 03:16:55;;;;;;;5.35;4.45;;;;;;;8.91;86.06;100600.77;1799122;78;21725;-70
2021/05/22 03:19:22;;;;;;;6.45;3.72;;;;;;;9.00;86.12;100603.84;1795184;78;21135;-71
2021/05/22 03:21:50;;;;;;;6.65;4.00;;;;;;;9.10;86.20;100606.11;1801604;78;21069;-70
2021/05/22 03:24:17;;;;;;;5.65;3.98;;;;;;;9.23;86.31;100606.28;1799199;78;21153;-71
2021/05/22 03:26:45;;;;;;;7.22;4.37;;;;;;;9.35;86.32;100605.65;1788158;78;21682;-70
2021/05/22 03:29:12;;;;;;;5.95;4.12;;;;;;;9.51;86.36;100611.16;1796323;78;21650;-70
2021/05/22 03:31:39;;;;;;;6.65;4.47;;;;;;;9.68;86.37;100614.58;1792805;78;21109;-71
2021/05/22 03:34:06;;;;;;;5.05;3.90;;;;;;;9.85;86.38;100615.83;1795517;78;33328;-70
2021/05/22 03:36:33;;;;;;;6.83;4.15;;;;;;;10.05;86.33;100616.03;1804187;78;21088;-71
2021/05/22 03:38:59;;;;;;;6.90;4.10;;;;;;;10.24;86.30;100615.69;1801913;78;21698;-71
2021/05/22 03:41:27;;;;;;;7.80;4.35;;;;;;;10.41;86.24;100612.93;1796141;78;21184;-71
2021/05/22 03:43:53;;;;;;;6.72;4.20;;;;;;;10.55;86.17;100612.77;1798396;78;21053;-71
2021/05/22 03:46:20;;;;;;;5.67;3.77;;;;;;;10.71;86.15;100611.02;1799926;78;21227;-70
2021/05/22 03:48:47;;;;;;;9.73;4.00;;;;;;;10.86;85.99;100608.98;1779216;79;21053;-70
2021/05/22 03:51:14;;;;;;;6.55;3.90;;;;;;;11.01;85.86;100615.23;1805183;77;22440;-70
2021/05/22 03:53:41;;;;;;;5.50;3.85;;;;;;;11.17;85.65;100614.79;1796394;78;21073;-70
2021/05/22 03:56:08;;;;;;;6.10;4.40;;;;;;;11.30;85.48;100610.84;1760634;80;21142;-71
2021/05/22 03:58:34;;;;;;;5.05;3.77;;;;;;;11.42;85.36;100612.78;1770192;79;21073;-71
2021/05/22 04:01:01;;;;;;;5.87;3.83;;;;;;;11.57;85.19;100611.23;1769922;79;21772;-69
2021/05/22 04:03:28;;;;;;;6.08;3.98;;;;;;;11.70;85.09;100610.73;1811927;78;21103;-70
2021/05/22 04:05:55;;;;;;;4.90;3.77;;;;;;;11.83;84.89;100609.44;1788291;78;22281;-71
2021/05/22 04:08:22;;;;;;;6.53;4.10;;;;;;;11.95;84.72;100609.50;1782451;79;21095;-70
2021/05/22 04:10:48;;;;;;;6.53;4.20;;;;;;;12.10;84.53;100610.59;1793615;78;21069;-69
2021/05/22 04:13:15;;;;;;;5.25;4.35;;;;;;;12.24;84.34;100609.53;1793916;78;21121;-70
2021/05/22 04:15:42;;;;;;;5.83;4.00;;;;;;;12.38;84.09;100614.66;1810145;77;21566;-70
2021/05/22 04:18:12;;;;;;;6.40;4.40;;;;;;;12.52;83.88;100613.58;1803565;78;21679;-70
2021/05/22 04:20:39;;;;;;;6.15;4.50;;;;;;;12.68;83.66;100621.88;1798046;78;21224;-69
2021/05/22 04:23:07;;;;;;;5.47;3.90;;;;;;;12.82;83.27;100622.92;1764306;80;21040;-69
2021/05/22 04:25:34;;;;;;;6.13;4.00;;;;;;;12.98;82.91;100628.27;1799393;79;21800;-71
2021/05/22 04:28:00;;;;;;;6.07;3.73;;;;;;;13.13;82.63;100626.38;1772994;79;21723;-70
2021/05/22 04:30:28;;;;;;;6.50;3.90;;;;;;;13.29;81.74;100632.53;1762921;78;21376;-70
2021/05/22 04:32:54;;;;;;;5.87;3.93;;;;;;;13.42;81.11;100635.15;1802790;78;21285;-71
2021/05/22 04:35:21;;;;;;;5.20;3.50;;;;;;;13.57;80.47;100633.77;1798134;78;21936;-70
2021/05/22 04:37:48;;;;;;;4.57;3.50;;;;;;;13.75;79.90;100632.87;1789606;78;21365;-71
2021/05/22 04:40:15;;;;;;;5.63;3.83;;;;;;;13.91;79.04;100628.23;1798222;78;21868;-70
2021/05/22 04:42:42;;;;;;;5.17;3.63;;;;;;;14.06;78.19;100628.15;1796520;78;21266;-70
2021/05/22 04:45:12;;;;;;;5.47;3.70;;;;;;;14.21;77.49;100628.03;1824369;78;21026;-70
2021/05/22 04:47:39;;;;;;;6.40;3.83;;;;;;;14.39;76.93;100620.41;1760206;79;21370;-70
2021/05/22 04:50:08;;;;;;;5.57;3.33;;;;;;;14.57;76.22;100618.94;1805928;78;21369;-71
2021/05/22 04:52:36;;;;;;;5.97;3.50;;;;;;;14.77;75.45;100617.41;1798196;78;21300;-71
2021/05/22 04:55:04;;;;;;;5.67;3.43;;;;;;;14.92;74.49;100621.84;1805768;78;21882;-71
2021/05/22 04:57:31;;;;;;;4.90;3.47;;;;;;;15.05;73.80;100615.80;1795885;78;21379;-70
2021/05/22 04:59:58;;;;;;;5.60;3.50;;;;;;;15.19;73.27;100616.70;1800220;78;21288;-70
2021/05/22 05:02:25;;;;;;;6.10;3.70;;;;;;;15.35;72.49;100618.69;1798023;78;21394;-71
2021/05/22 05:04:51;;;;;;;5.60;3.63;;;;;;;15.53;71.77;100620.35;1813371;78;21415;-71
2021/05/22 05:07:18;;;;;;;5.03;3.10;;;;;;;15.68;70.26;100630.97;1799075;78;21415;-71
2021/05/22 05:09:46;;;;;;;5.30;3.10;;;;;;;15.79;68.89;100626.25;1799772;78;21875;-70
2021/05/22 05:12:14;;;;;;;5.13;3.03;;;;;;;15.92;67.56;100620.94;1798470;78;22153;-71
2021/05/22 05:14:41;;;;;;;4.80;3.30;;;;;;;16.07;66.35;100628.56;1792590;78;21466;-70
2021/05/22 05:17:08;;;;;;;4.63;2.80;;;;;;;16.28;64.47;100623.66;1800804;78;21472;-71
2021/05/22 05:19:35;;;;;;;4.23;2.60;;;;;;;16.43;63.54;100623.43;1774737;79;21561;-71
2021/05/22 05:22:03;;;;;;;4.37;2.47;;;;;;;16.58;62.07;100638.02;1795600;78;21501;-70
2021/05/22 05:24:30;;;;;;;3.80;2.43;;;;;;;16.58;62.07;100638.02;1773892;79;21588;-71
2021/05/22 05:26:57;;;;;;;3.77;2.30;;;;;;;16.68;60.71;100634.88;1797356;78;21713;-71
2021/05/22 05:29:24;;;;;;;3.73;2.47;;;;;;;16.92;58.97;100631.53;1808660;78;21809;-71
2021/05/22 05:31:52;;;;;;;3.57;2.33;;;;;;;16.92;58.97;100631.53;1811601;77;22397;-71
2021/05/22 05:34:18;;;;;;;4.60;2.40;;;;;;;17.02;57.37;100635.39;1788374;78;21802;-70
2021/05/22 05:36:45;;;;;;;2.77;2.00;;;;;;;17.10;56.80;100637.38;1762447;80;21799;-71
2021/05/22 05:39:15;;;;;;;3.67;2.20;;;;;;;17.18;56.25;100630.52;1776559;79;21804;-71
2021/05/22 05:41:41;;;;;;;3.47;2.10;;;;;;;17.29;56.30;100631.11;1774707;79;21793;-71
2021/05/22 05:44:08;;;;;;;2.90;2.00;;;;;;;17.44;56.43;100626.77;1810920;78;22273;-71
2021/05/22 05:46:37;;;;;;;5.80;2.00;;;;;;;17.62;55.93;100626.94;1800958;78;21658;-70
2021/05/22 05:49:04;;;;;;;4.50;2.50;;;;;;;17.79;55.97;100631.19;1801815;78;22338;-70
2021/05/22 05:51:30;;;;;;;5.70;2.50;;;;;;;17.98;55.70;100628.34;1798612;78;21107;-71
2021/05/22 05:53:58;;;;;;;3.30;2.00;;;;;;;18.16;55.52;100634.69;1794207;78;21041;-71
2021/05/22 05:56:24;;;;;;;4.17;2.03;;;;;;;18.33;54.80;100628.09;1795214;78;21029;-70
2021/05/22 05:58:51;;;;;;;3.67;1.93;;;;;;;18.47;54.09;100633.42;1799655;79;21040;-72
2021/05/22 06:01:19;;;;;;;3.30;1.80;;;;;;;18.63;53.66;100635.20;1805274;78;21032;-71
2021/05/22 06:03:48;;;;;;;2.70;1.87;;;;;;;18.77;53.00;100635.95;1807278;78;21080;-71
2021/05/22 06:06:14;;;;;;;3.90;1.70;;;;;;;18.93;52.02;100639.85;1815407;77;21123;-71
2021/05/22 06:08:41;;;;;;;3.80;1.80;;;;;;;19.10;51.05;100646.46;1796559;78;21160;-71
2021/05/22 06:11:11;;;;;;;2.67;1.60;;;;;;;19.25;50.37;100650.13;1789694;78;21076;-71
2021/05/22 06:13:37;;;;;;;2.37;1.50;;;;;;;19.41;49.68;100655.36;1765475;80;21110;-71
2021/05/22 06:18:37;;;;;;;3.53;1.50;;;;;;;19.73;47.68;100654.73;1782591;79;21026;-71
2021/05/22 06:21:06;;;;;;;2.80;1.27;;;;;;;19.84;47.31;100655.22;1809648;77;21436;-70
2021/05/22 06:23:33;;;;;;;2.90;1.37;;;;;;;19.89;46.65;100646.39;1795912;78;21057;-72
2021/05/22 06:26:00;;;;;;;1.90;1.30;;;;;;;19.95;45.97;100640.83;1792189;78;21097;-71
2021/05/22 06:28:27;;;;;;;3.00;1.27;;;;;;;20.00;45.70;100644.16;1785566;79;21090;-71
2021/05/22 06:30:56;;;;;;;3.87;1.10;;;;;;;20.08;44.80;100638.52;1784874;79;21120;-71
2021/05/22 06:33:23;;;;;;;2.83;1.27;;;;;;;20.13;44.46;100638.34;1794912;78;21814;-71
2021/05/22 06:35:50;;;;;;;3.47;1.23;;;;;;;20.21;43.99;100648.41;1796865;78;21111;-72
2021/05/22 06:38:16;;;;;;;3.20;1.30;;;;;;;20.32;43.68;100651.59;1788922;78;21073;-71
2021/05/22 06:40:45;;;;;;;3.33;1.33;;;;;;;20.39;42.55;100660.83;1775610;79;21162;-72
2021/05/22 06:43:12;;;;;;;2.20;1.30;;;;;;;20.45;42.26;100653.34;1759754;80;21566;-72
2021/05/22 06:45:57;;;;;;;3.07;1.40;;;;;;;20.52;41.85;100650.96;1765009;80;21093;-71
2021/05/22 06:48:13;;;;;;;2.40;1.20;;;;;;;20.55;40.78;100653.03;1768397;78;21078;-71
2021/05/22 06:50:41;;;;;;;2.53;1.20;;;;;;;20.50;41.24;100652.36;1797721;78;21678;-71
2021/05/22 06:53:08;;;;;;;1.63;0.97;;;;;;;20.51;41.47;100657.52;1766774;78;21726;-71
2021/05/22 06:55:36;;;;;;;2.50;1.00;;;;;;;20.58;41.00;100659.73;1797117;78;21077;-72
2021/05/22 06:58:05;;;;;;;2.43;1.10;;;;;;;20.65;40.95;100660.61;1798399;78;21061;-71
2021/05/22 07:00:31;;;;;;;2.87;1.10;;;;;;;20.73;40.48;100661.14;1797116;78;21688;-71
2021/05/22 07:02:58;;;;;;;3.97;1.33;;;;;;;20.78;40.10;100664.48;1797570;78;21092;-71
2021/05/22 07:05:24;;;;;;;1.73;1.00;;;;;;;20.82;39.91;100664.63;1796584;78;21059;-72
2021/05/22 07:07:53;;;;;;;1.87;0.90;;;;;;;20.85;39.74;100662.06;1794818;78;21111;-72
2021/05/22 07:10:20;;;;;;;1.67;0.90;;;;;;;20.81;38.42;100661.13;1799537;78;21843;-70
2021/05/22 07:12:48;;;;;;;2.67;1.10;;;;;;;20.69;38.51;100661.55;1804177;78;21154;-71
2021/05/22 07:15:15;;;;;;;2.70;1.00;;;;;;;20.51;38.16;100660.23;1796174;78;21045;-71
2021/05/22 07:17:41;;;;;;;2.33;1.00;;;;;;;20.37;38.86;100666.36;1790264;78;21092;-71
2021/05/22 07:20:10;;;;;;;2.07;1.10;;;;;;;20.28;39.04;100661.50;1808590;78;21014;-71
2021/05/22 07:22:37;;;;;;;3.10;1.00;;;;;;;20.25;38.72;100660.21;1806935;78;21145;-70
2021/05/22 07:25:04;;;;;;;2.77;1.00;;;;;;;20.30;39.01;100656.53;1771864;78;21061;-71
2021/05/22 07:27:35;;;;;;;1.73;0.90;;;;;;;20.32;38.47;100659.73;1795337;78;21092;-72
2021/05/22 07:29:59;;;;;;;1.27;0.83;;;;;;;20.37;39.13;100657.66;1803288;77;21095;-70
2021/05/22 07:32:26;;;;;;;2.03;0.90;;;;;;;20.48;39.08;100657.33;1794660;78;21098;-70
2021/05/22 07:34:53;;;;;;;3.07;0.90;;;;;;;20.60;37.99;100650.16;1775131;79;21846;-71
2021/05/22 07:37:20;;;;;;;2.57;1.13;;;;;;;20.71;37.65;100647.90;1799475;78;21143;-70
2021/05/22 07:39:46;;;;;;;1.93;1.00;;;;;;;20.83;37.80;100644.53;1807716;78;21160;-70
2021/05/22 07:42:13;;;;;;;2.97;1.17;;;;;;;20.92;36.65;100647.20;1798998;79;21005;-71
2021/05/22 07:44:40;;;;;;;2.47;1.00;;;;;;;20.88;37.62;100647.05;1797820;78;21431;-71
2021/05/22 07:47:07;;;;;;;2.00;0.93;;;;;;;20.89;37.57;100650.00;1795451;78;21155;-71
2021/05/22 07:49:40;;;;;;;2.63;1.10;;;;;;;20.95;37.81;100651.98;1796316;78;21124;-71
2021/05/22 07:52:10;;;;;;;2.30;0.80;;;;;;;21.05;38.04;100647.55;1799376;78;21057;-71
2021/05/22 07:54:41;;;;;;;1.80;1.07;;;;;;;21.22;37.86;100637.18;1798725;78;21061;-72
2021/05/22 07:57:09;;;;;;;2.50;1.00;;;;;;;21.39;37.21;100643.12;1795963;78;21072;-71
2021/05/22 07:59:37;;;;;;;1.53;0.90;;;;;;;21.45;36.92;100636.38;1799738;78;21265;-71
2021/05/22 08:02:04;;;;;;;2.43;0.80;;;;;;;21.53;36.49;100630.91;1794730;78;21181;-71
2021/05/22 08:04:31;;;;;;;2.33;1.00;;;;;;;21.59;36.08;100630.73;1807856;78;21427;-72
2021/05/22 08:06:58;;;;;;;2.57;1.00;;;;;;;21.59;35.82;100630.16;1795608;78;21077;-72
2021/05/22 08:09:26;;;;;;;2.30;1.27;;;;;;;21.53;35.19;100628.19;1796070;78;21052;-70
2021/05/22 08:11:53;;;;;;;2.00;0.90;;;;;;;21.53;34.96;100620.03;1802431;77;21779;-70
2021/05/22 08:14:21;;;;;;;1.90;1.13;;;;;;;21.55;34.35;100621.05;1796024;78;21058;-71
2021/05/22 08:16:48;;;;;;;2.30;1.00;;;;;;;21.62;34.87;100619.17;1792391;79;21097;-71
2021/05/22 08:19:14;;;;;;;1.63;1.00;;;;;;;21.67;33.93;100625.22;1793620;78;21164;-69
2021/05/22 08:21:42;;;;;;;1.97;1.00;;;;;;;21.61;34.94;100629.25;1787996;78;21137;-71
2021/05/22 08:24:10;;;;;;;2.17;0.90;;;;;;;21.65;34.37;100617.16;1783629;79;21792;-71
2021/05/22 08:26:38;;;;;;;3.73;1.13;;;;;;;21.72;34.55;100614.16;1771954;79;21070;-70
2021/05/22 08:29:05;;;;;;;1.17;0.80;;;;;;;21.87;34.18;100612.77;1793636;78;21135;-72
2021/05/22 08:31:33;;;;;;;3.07;0.97;;;;;;;22.01;33.21;100610.59;1798973;78;21124;-71
2021/05/22 08:34:00;;;;;;;3.23;1.03;;;;;;;22.17;32.82;100609.42;1802634;78;21209;-71
2021/05/22 08:36:28;;;;;;;1.93;1.00;;;;;;;22.23;32.08;100607.30;1789856;78;21750;-72
2021/05/22 08:38:55;;;;;;;1.07;0.80;;;;;;;22.22;31.60;100609.80;1810176;77;21092;-71
2021/05/22 08:41:21;;;;;;;4.00;0.90;;;;;;;22.31;32.47;100605.61;1791035;78;21060;-71
2021/05/22 08:43:48;;;;;;;2.30;1.00;;;;;;;22.50;33.05;100603.75;1793000;78;21164;-70
2021/05/22 08:46:18;;;;;;;2.80;0.80;;;;;;;22.71;31.84;100606.65;1788311;78;21066;-72
2021/05/22 08:48:48;;;;;;;5.67;1.20;;;;;;;22.88;31.45;100602.93;1778325;79;22080;-71
2021/05/22 08:51:15;;;;;;;1.80;1.00;;;;;;;23.11;31.59;100601.95;1792679;78;21057;-72
2021/05/22 08:53:41;;;;;;;2.80;1.00;;;;;;;23.29;31.24;100592.97;1775251;79;21179;-72
2021/05/22 08:56:08;;;;;;;1.67;0.80;;;;;;;23.36;31.82;100591.85;1795828;78;21049;-72
2021/05/22 08:58:37;;;;;;;3.27;1.00;;;;;;;23.46;30.94;100582.41;1795620;78;21080;-70
2021/05/22 09:01:05;;;;;;;1.53;0.97;;;;;;;23.47;31.45;100583.98;1766657;79;21132;-71
2021/05/22 09:03:32;;;;;;;1.97;0.80;;;;;;;23.52;31.44;100589.19;1812087;77;21666;-71
2021/05/22 09:05:59;;;;;;;1.10;0.70;;;;;;;23.55;30.32;100587.14;1792718;78;21120;-72
2021/05/22 09:08:27;;;;;;;1.40;0.80;;;;;;;23.49;30.56;100579.55;1805870;78;21146;-72
2021/05/22 09:10:54;;;;;;;1.07;0.80;;;;;;;23.53;30.54;100573.08;1748530;78;21085;-71
2021/05/22 09:13:26;;;;;;;4.23;1.00;;;;;;;23.59;29.40;100569.52;1790816;79;21756;-71
2021/05/22 09:16:04;;;;;;;3.08;1.30;;;;;;;23.54;29.77;100568.41;1773303;79;21093;-70
2021/05/22 09:18:39;;;;;;;2.30;1.03;;;;;;;23.48;29.73;100571.15;1798470;78;21040;-71
2021/05/22 09:21:11;;;;;;;2.10;1.00;;;;;;;23.41;29.23;100567.64;1810299;78;21083;-72
2021/05/22 09:23:40;;;;;;;2.10;1.00;;;;;;;23.24;29.72;100570.62;1810125;78;21131;-72
2021/05/22 09:26:13;;;;;;;2.60;1.10;;;;;;;23.16;30.28;100565.50;1807580;77;21119;-72
2021/05/22 09:28:50;;;;;;;2.17;0.77;;;;;;;23.18;31.36;100568.12;1778403;79;21210;-71
2021/05/22 09:31:23;;;;;;;1.70;0.97;;;;;;;23.34;31.43;100571.52;1810195;78;21080;-70
2021/05/22 09:33:59;;;;;;;1.83;0.83;;;;;;;23.38;30.19;100566.96;1799060;78;21575;-71
2021/05/22 09:36:25;;;;;;;3.73;1.00;;;;;;;23.29;29.78;100570.38;1787280;78;21677;-72
2021/05/22 09:38:55;;;;;;;1.70;0.73;;;;;;;23.22;29.99;100567.44;1798165;78;21735;-71
2021/05/22 09:41:34;;;;;;;2.30;1.10;;;;;;;23.23;30.02;100568.47;1798004;78;21119;-71
2021/05/22 09:44:16;;;;;;;1.90;0.90;;;;;;;23.23;29.77;100560.30;1798718;78;21698;-72
2021/05/22 09:46:49;;;;;;;2.43;0.80;;;;;;;23.22;28.95;100553.23;1795690;78;21114;-71
2021/05/22 09:49:35;;;;;;;1.73;0.90;;;;;;;23.17;30.01;100553.48;1795138;79;21036;-72
2021/05/22 09:52:13;;;;;;;1.80;1.10;;;;;;;23.18;29.68;100546.31;1808462;77;21434;-71
2021/05/22 09:54:46;;;;;;;1.40;0.90;;;;;;;23.21;28.69;100550.87;1813136;78;21111;-70
2021/05/22 09:57:19;;;;;;;3.63;0.83;;;;;;;23.32;29.91;100551.98;1798981;78;21065;-71
2021/05/22 10:00:11;;;;;;;3.30;1.10;;;;;;;23.49;29.22;100553.07;1795890;78;21144;-71
2021/05/22 10:02:57;;;;;;;2.02;1.10;;;;;;;23.67;29.41;100548.16;1796052;78;21692;-71
2021/05/22 10:05:32;;;;;;;1.80;1.00;;;;;;;23.76;29.38;100531.70;1795283;78;21848;-71
2021/05/22 10:08:03;;;;;;;1.30;0.80;;;;;;;23.75;29.81;100530.09;1806521;77;21057;-71
2021/05/22 10:10:40;;;;;;;;;;;;;;;23.77;29.71;100533.27;1820240;77;21120;-71
2021/05/22 10:13:09;;;;;;;1.80;0.80;;;;;;;23.70;29.92;100527.05;1759944;80;20612;-70
2021/05/22 10:15:36;;;;;;;2.37;0.80;;;;;;;23.65;29.42;100523.95;1809350;78;21035;-71
2021/05/22 10:18:03;;;;;;;2.17;0.87;;;;;;;23.58;29.46;100525.69;1774718;79;21849;-70
2021/05/22 10:20:31;;;;;;;1.97;0.70;;;;;;;23.55;29.77;100518.98;1798005;78;22591;-70
2021/05/22 10:22:57;;;;;;;2.07;0.80;;;;;;;23.54;29.68;100525.58;1798705;78;21069;-71
2021/05/22 10:25:24;;;;;;;2.90;0.90;;;;;;;23.60;30.69;100522.84;1797972;78;21119;-71
2021/05/22 10:27:51;;;;;;;2.70;0.90;;;;;;;23.74;29.82;100518.97;1806286;77;21009;-71
2021/05/22 10:30:20;;;;;;;1.63;0.70;;;;;;;23.73;30.05;100511.94;1810886;78;21122;-70
2021/05/22 10:32:46;;;;;;;1.90;0.87;;;;;;;23.69;26.93;100510.47;1799832;78;21081;-70
2021/05/22 10:35:24;;;;;;;2.80;0.97;;;;;;;23.56;28.32;100508.32;1794283;78;21697;-71
2021/05/22 10:37:52;;;;;;;3.53;1.03;;;;;;;23.61;29.15;100503.19;1805772;77;21045;-71
2021/05/22 10:40:41;;;;;;;2.40;0.83;;;;;;;23.75;29.62;100497.36;1815686;78;21661;-71
2021/05/22 10:43:08;;;;;;;3.47;1.00;;;;;;;23.86;29.26;100483.47;1790644;78;21120;-71
2021/05/22 10:45:37;;;;;;;3.07;0.87;;;;;;;23.98;28.93;100485.32;1746307;80;21675;-71
2021/05/22 10:48:19;;;;;;;1.37;0.87;;;;;;;24.05;29.05;100480.05;1794752;78;21101;-69
2021/05/22 10:50:47;;;;;;;1.57;0.95;;;;;;;24.15;29.03;100477.37;1791820;78;21535;-69
2021/05/22 10:53:37;;;;;;;2.03;1.00;;;;;;;24.30;29.18;100480.70;1794364;78;21591;-71
2021/05/22 10:56:17;;;;;;;1.47;1.03;;;;;;;24.41;28.88;100470.86;1806237;77;21092;-72
2021/05/22 10:59:07;;;;;;;1.97;0.90;;;;;;;24.42;28.69;100462.91;1793162;78;21192;-71
2021/05/22 11:01:35;;;;;;;2.07;0.83;;;;;;;24.49;28.31;100460.92;1797021;78;21590;-70
2021/05/22 11:04:15;;;;;;;3.10;0.90;;;;;;;24.49;28.13;100465.02;1798051;78;21108;-70
2021/05/22 11:06:58;;;;;;;3.80;0.93;;;;;;;24.46;28.70;100458.90;1796771;78;21072;-68
2021/05/22 11:09:32;;;;;;;2.20;0.90;;;;;;;24.52;28.82;100454.18;1795686;78;22237;-70
2021/05/22 11:12:14;;;;;;;2.07;0.97;;;;;;;24.59;28.67;100456.87;1796385;78;21504;-69
2021/05/22 11:14:43;;;;;;;2.02;0.80;;;;;;;24.64;28.75;100453.27;1790761;78;21048;-70
2021/05/22 11:17:33;;;;;;;1.83;0.70;;;;;;;24.75;27.54;100449.45;1789706;78;21032;-69
2021/05/22 11:20:12;;;;;;;1.60;0.88;;;;;;;24.73;27.45;100439.44;1803929;77;21937;-70
2021/05/22 11:22:53;;;;;;;2.63;1.00;;;;;;;24.70;27.97;100442.30;1774306;79;21097;-71
2021/05/22 11:25:18;;;;;;;2.87;0.93;;;;;;;24.77;28.17;100441.67;1793134;78;21619;-73
2021/05/22 11:27:54;;;;;;;1.70;0.90;;;;;;;24.86;27.86;100439.54;1799193;78;21210;-71
2021/05/22 11:30:33;;;;;;;2.23;0.90;;;;;;;24.96;27.92;100432.73;1791038;78;21087;-71
2021/05/22 11:33:09;;;;;;;1.40;0.80;;;;;;;25.01;28.35;100434.61;1804614;78;21031;-71
2021/05/22 11:35:47;;;;;;;4.27;1.30;;;;;;;25.00;28.14;100437.69;1808324;78;21047;-70
2021/05/22 11:38:26;;;;;;;1.67;0.90;;;;;;;25.03;27.00;100433.66;1803067;78;21123;-71
2021/05/22 11:40:54;;;;;;;3.57;1.00;;;;;;;25.11;26.96;100437.36;1794619;78;21073;-71